Grand Central Airport

Jump to: basic info | weather | frequencies | runways | comments

Related pages: nearby airports | nearby navaids | notams | map

Basic information (top)

Codes: GCJ FAGC
Location: lon -25.986300, lat 28.140100, elev 5,325 ft / 1,623 m msl
Status: medium_airport
Scheduled airline service: no
Links: Wikipedia Mobile

Weather (top)

Current conditions (rec'd 2015/03/28 20:00Z):

FAGC 282000Z AUTO 08003KT //// // ////// 17/// Q1023

Airport forecast for Waterkloof Air Force Base 10nm (19km) NNE (rec'd 2015/02/28 07:00Z):

TAF FAWK 280600Z 2807/2818 04008KT 9999 SCT025 
      BECMG 2809/2811 30008KT SCT040 PROB40 
      TEMPO 2811/2818 5000 TSRA FEW035CB TX26/2812ZTN20/2818Z

Frequencies (top)

Verify before use: may be inaccurate or out of date.

AFIS: 122.8 MHz (AFIS)

Runways (top)

17/35: 6,004 x 75 ft (1,830 x 23 m) — paved — lighted — threshold 17 displaced 175 ft (53 m) — threshold 35 displaced 175 ft (53 m)

Latest comments (top)

No comments yet for Grand Central Airport

More... (top)

See also NOTAMs and nearby airports and navaids, or visit the Grand Central Airport page at the main OurAirports website..